Holy Cross Airport
PAHC : now visible

Aeroporto :











RITROVATECI SU...

 
LOGIN :

Iscrizione | Disclaimer

   EN    FR    IT 

 









Sommario :    VFR   VFR Marginale   IFR   IFR Intensivo   IFR Molto Intensivo
Visibilità : 
Base nubi : 
>= 8 km
>= 3000ft
5 / 8 km
1000 / 3000 ft
1500m / 5 km
500 / 1000 ft
800 / 1500m
200 / 500 ft
< 800m
< 200 ft
Simboli :   Temporali  Nebbia  Neve Forte  Precipitazioni Forti  Vento > 20 kt






- Altitudine del aeroporto : 70 ft
- Codice IATA : HCR


PAHC - Holy Cross

ULTIMO METAR :
  • 011956Z AUTO 19005KT 10SM SCT075 OVC090 13/04 A2958 RMK AO2 SLP018 T01330039

METARs OBSOLETI :
  • 011856Z AUTO 18005KT 10SM OVC070 12/05 A2958 RMK AO2 SLP018 T01220050
  • 011756Z AUTO 20004KT 10SM OVC070 11/07 A2957 RMK AO2 SLP017 60006 T01110072 10122 20089 51004
  • 011656Z AUTO 00000KT 10SM OVC065 10/08 A2957 RMK AO2 RAE42 SLP016 P0000 T01000078

TAF N/A
FIR PAZA / America del Nord



MetMap, La meteo Aeronautica in un colpo d'occhio ! - Copyright ORBIFLY Dicembre 2007 - Disclaimer

ORBIFLY MET'MAP TEAM :

Programmazione e sviluppo : Alexandra Zaïnal
Concezione : Baudouin d'Aumeries
Aiuto per la programmazione : Marc-Olivier Méhu
Supporto tecnico e logistico : Manuel Goepfert
Aiuto per la traduzione : Arnaldo La Scala

Contatto : metmap@orbifly.com




FONTI E CREDITI :

   NOAA       Earth
Advisory